Search for airport 
image banner adimage banner ad
image banner ad

SVWR - Aquamarina

Located in Aquamarina Unare, Venezuela

ICAO - , IATA -

Data provided by Airmate  

General information

Coordinates: N10°2'29" W65°11'20"
Elevation is feet MSL.
 
Rated:
View ratings: [VIEW]


View others Airports in Miranda

Operational data

Open for public use
Current time UTC:
Current local time:
METAR: SVBC 151902Z AUTO NIL
TAF: TAF SVBC 151600Z 1518/1618 11006KT 9999 SCT070 TX35/1518Z TN24/1508Z BECMG 1518/1522 05008KT 9999 SCT016
View NOTAMs / SUP AIP / TFR affecting this airport [VIEW]
Communications frequencies: [VIEW]

Runways:

Airport contact information

Address: Aquamarina Unare Venezuela

Satellite view of SVWR